Terminal Aerodrome Forecast
Issued by NWS

Home | Current Version | Previous Version | Text Only | Print | Product List | Glossary On
Versions: 1 2 3 4 5 6 7 8 9 10 11 12 13 14 15 16 17 18 19 20 21 22
000
FTUS44 KEWX 221100
TAFSSF
TAF
KSSF 221138Z 2212/2312 VRB03KT 4SM BR SCT003 OVC010
      TEMPO 2212/2215 2SM -DZ BR BKN003
     FM221600 25005KT 6SM BR BKN015
     FM221800 26010KT P6SM FEW015 BKN250
     FM230000 VRB04KT P6SM SCT250=

USA.gov is the U.S. government's official web portal to all federal, state and local government web resources and services.